Adiyaman, Turkey

6:37 AM EET on December 19, 2014 (GMT +0200)
SANLIURFA GAP | Change Station
CLOSE
Current Station
Airport
Location: SANLIURFA GAP,
Elevation: 2707 ft
Nearby Weather Stations

Elev 2707 ft 37.45 °N, 38.90 °E | Updated 17 minutes ago

Mostly Cloudy
Mostly Cloudy
43 °F
Feels Like 37 °F
N
12
Wind Variable Wind from ESE

Today
High -- | Low -- °F
--% Chance of Precip.
Yesterday
High -- | Low -- °F
Precip. -- in
6:37 AM 4:10 PM
Waning Crescent, 10% visible
Pressure 30.15 in
Visibility 1.9 miles
Clouds Scattered Clouds 200 ft
Mostly Cloudy 3000 ft
Windchill 37 °F
Dew Point 43 °F
Humidity 100%
Rainfall 0.00 in
Snow Depth Not available.
UV 0 out of 12
Pollen Not available.
Air Quality Not available.
Flu Activity Not available.
METAR LTCS 190420Z 11010KT 3000 BR SCT002 BKN030 06/06 Q1021

More Conditions Fewer Conditions

Pressure 30.15 in
Visibility 1.9 miles
Clouds Scattered Clouds 200 ft
Mostly Cloudy 3000 ft
Windchill 37 °F
Dew Point 43 °F
Humidity 100%
Rainfall 0.00 in
Snow Depth Not available.
UV 0 out of 12
Pollen Not available.
Air Quality Not available.
Flu Activity Not available.
METAR LTCS 190420Z 11010KT 3000 BR SCT002 BKN030 06/06 Q1021

More Conditions Fewer Conditions

10-Day Weather Forecast

Almanac

Astronomy

Dec. 19, 2014 Rise Set
Actual Time
Civil Twilight
Nautical Twilight
Astronomical Twilight
Moon
Length of Visible Light
Length of Day
Tomorrow will be .
, % of the Moon is Illuminated

Today's Extremes

Country Highs Country Lows

Community

WunderPhotos

Upload Photos

1,778,963 photos uploaded!

WunderBlogs® & News

Nearby

Air Quality

  Air Quality AQ Index Pollutant
Not available.

Snow Depth

Station Depth Elevation

Earthquake Activity

City Distance Mag. Time & Date
Minimum magnitude displayed is 2.5.

Coastal Water Temperatures

Place Temperature

Nearby Weather Stations